Time;durP1;ratioP1;P1;durP2;ratioP2;P2;SDS_P1;SDS_P2;PMS_P1;PMS_P2;Temp;Humidity;BMP_temperature;BMP_pressure;BME280_temperature;BME280_humidity;BME280_pressure;Samples;Min_cycle;Max_cycle;Signal;HPM_P1;HPM_P2
2023/07/26 00:00:36;;;;;;;5.97;1.47;;;;;;;;;;5091239;28;20032;-74
2023/07/26 00:03:11;;;;;;;9.67;2.10;;;;;;;;;;5091448;28;20020;-75
2023/07/26 00:05:40;;;;;;;3.73;1.63;;;;;;;;;;5092200;28;21045;-74
2023/07/26 00:08:10;;;;;;;6.03;1.57;;;;;;;;;;5091624;28;20020;-75
2023/07/26 00:10:36;;;;;;;5.50;1.60;;;;;;;;;;5091274;28;20020;-75
2023/07/26 00:13:20;;;;;;;3.77;1.57;;;;;;;;;;5083147;28;20088;-75
2023/07/26 00:15:48;;;;;;;4.73;1.30;;;;;;;;;;5083008;28;20072;-75
2023/07/26 00:18:17;;;;;;;8.43;1.70;;;;;;;;;;5092002;28;20084;-75
2023/07/26 00:20:46;;;;;;;2.20;1.40;;;;;;;;;;5087822;28;20099;-74
2023/07/26 00:23:20;;;;;;;4.87;1.90;;;;;;;;;;5095370;28;20028;-74
2023/07/26 00:25:48;;;;;;;6.77;1.90;;;;;;;;;;5084490;28;20037;-74
2023/07/26 00:28:16;;;;;;;3.95;1.75;;;;;;;;;;5090394;28;20116;-75
2023/07/26 00:30:44;;;;;;;5.13;1.70;;;;;;;;;;5091816;28;20016;-74
2023/07/26 00:33:13;;;;;;;7.25;1.85;;;;;;;;;;5107052;28;20024;-74
2023/07/26 00:35:40;;;;;;;5.78;1.50;;;;;;;;;;5091674;28;20079;-74
2023/07/26 00:38:08;;;;;;;4.18;1.55;;;;;;;;;;5092144;28;20048;-75
2023/07/26 00:40:38;;;;;;;5.63;1.83;;;;;;;;;;5108042;28;20021;-74
2023/07/26 00:43:05;;;;;;;4.40;1.33;;;;;;;;;;5090387;28;20088;-75
2023/07/26 00:45:32;;;;;;;9.00;1.70;;;;;;;;;;5090878;28;20080;-74
2023/07/26 00:48:02;;;;;;;6.80;1.63;;;;;;;;;;5091650;28;20032;-74
2023/07/26 00:50:46;;;;;;;5.57;1.60;;;;;;;;;;5086059;28;20021;-75
2023/07/26 00:53:32;;;;;;;3.40;1.20;;;;;;;;;;5088938;28;20028;-74
2023/07/26 00:56:19;;;;;;;3.80;1.43;;;;;;;;;;5085418;28;20032;-76
2023/07/26 00:58:52;;;;;;;2.97;1.50;;;;;;;;;;5090087;28;20017;-75
2023/07/26 01:01:22;;;;;;;6.27;1.37;;;;;;;;;;5090058;28;20042;-75
2023/07/26 01:03:52;;;;;;;3.17;1.60;;;;;;;;;;5091143;28;20024;-75
2023/07/26 01:06:36;;;;;;;4.47;1.40;;;;;;;;;;5090166;28;20049;-74
2023/07/26 01:09:14;;;;;;;1.85;1.17;;;;;;;;;;5088974;28;20025;-75
2023/07/26 01:11:58;;;;;;;4.90;1.65;;;;;;;;;;5089390;28;20061;-74
2023/07/26 01:14:29;;;;;;;2.97;1.30;;;;;;;;;;5090837;28;20021;-75
2023/07/26 01:16:58;;;;;;;5.18;1.83;;;;;;;;;;5106979;28;20024;-74
2023/07/26 01:19:33;;;;;;;10.35;2.13;;;;;;;;;;5089381;28;20076;-75
2023/07/26 01:22:07;;;;;;;2.47;1.20;;;;;;;;;;5082184;28;20045;-75
2023/07/26 01:24:33;;;;;;;4.72;0.98;;;;;;;;;;5090684;28;20021;-75
2023/07/26 01:27:15;;;;;;;4.13;1.15;;;;;;;;;;5089267;28;20062;-74
2023/07/26 01:29:51;;;;;;;;;;;;;;;;;;;;;
2023/07/26 01:32:27;;;;;;;4.97;1.20;;;;;;;;;;5090908;28;20047;-75
2023/07/26 01:35:03;;;;;;;;;;;;;;;;;;;;;
2023/07/26 01:37:32;;;;;;;8.88;1.45;;;;;;;;;;5090552;28;21167;-76
2023/07/26 01:40:11;;;;;;;5.38;1.45;;;;;;;;;;5089757;28;20028;-74
2023/07/26 01:42:47;;;;;;;5.28;1.20;;;;;;;;;;5092107;28;20017;-75
2023/07/26 01:45:16;;;;;;;6.47;1.58;;;;;;;;;;5090734;28;20033;-76
2023/07/26 01:47:47;;;;;;;6.63;1.48;;;;;;;;;;5089410;28;20036;-75
2023/07/26 01:50:13;;;;;;;3.58;1.38;;;;;;;;;;5089716;28;20021;-75
2023/07/26 01:52:39;;;;;;;4.68;1.50;;;;;;;;;;5089655;28;20032;-75
2023/07/26 01:55:21;;;;;;;4.72;1.40;;;;;;;;;;5086464;28;20048;-74
2023/07/26 01:57:50;;;;;;;9.05;1.65;;;;;;;;;;5081759;28;20060;-75
2023/07/26 02:00:22;;;;;;;2.88;1.50;;;;;;;;;;5089569;28;20037;-75
2023/07/26 02:02:48;;;;;;;8.18;1.23;;;;;;;;;;5090194;28;20020;-75
2023/07/26 02:05:16;;;;;;;6.88;1.40;;;;;;;;;;5090357;28;20031;-75
2023/07/26 02:07:45;;;;;;;7.63;1.75;;;;;;;;;;5088737;28;20036;-75
2023/07/26 02:13:04;;;;;;;7.38;1.73;;;;;;;;;;5094362;28;20024;-74
2023/07/26 02:15:35;;;;;;;5.68;1.95;;;;;;;;;;5095193;28;20016;-76
2023/07/26 02:18:01;;;;;;;2.28;1.20;;;;;;;;;;5091202;28;20047;-75
2023/07/26 02:20:29;;;;;;;7.82;2.47;;;;;;;;;;5094222;28;20075;-75
2023/07/26 02:22:58;;;;;;;2.13;1.30;;;;;;;;;;5087787;28;20021;-74
2023/07/26 02:25:26;;;;;;;5.40;1.80;;;;;;;;;;5088322;28;20012;-75
2023/07/26 02:27:52;;;;;;;3.72;1.48;;;;;;;;;;5092499;28;20031;-74
2023/07/26 02:30:20;;;;;;;3.53;1.50;;;;;;;;;;5094141;28;20024;-75
2023/07/26 02:32:46;;;;;;;5.63;1.77;;;;;;;;;;5093331;28;21182;-75
2023/07/26 02:35:23;;;;;;;9.05;2.08;;;;;;;;;;5093379;28;20024;-75
2023/07/26 02:37:49;;;;;;;6.38;1.48;;;;;;;;;;5105850;28;20028;-74
2023/07/26 02:40:15;;;;;;;4.65;1.60;;;;;;;;;;5093093;28;20035;-74
2023/07/26 02:42:51;;;;;;;;;;;;;;;;;;;;;
2023/07/26 02:45:22;;;;;;;5.97;1.63;;;;;;;;;;5093214;28;20052;-75
2023/07/26 02:48:06;;;;;;;4.82;2.15;;;;;;;;;;5084618;28;20075;-75
2023/07/26 02:50:35;;;;;;;4.85;1.75;;;;;;;;;;5093451;28;20024;-76
2023/07/26 02:53:03;;;;;;;3.60;1.48;;;;;;;;;;5090140;28;20138;-76
2023/07/26 02:55:29;;;;;;;2.20;1.42;;;;;;;;;;5093535;28;20042;-78
2023/07/26 02:57:58;;;;;;;8.60;2.65;;;;;;;;;;5092925;28;20036;-79
2023/07/26 03:00:26;;;;;;;5.60;1.52;;;;;;;;;;5093100;28;20020;-76
2023/07/26 03:02:52;;;;;;;5.83;1.80;;;;;;;;;;5085255;28;20025;-75
2023/07/26 03:05:36;;;;;;;4.53;1.73;;;;;;;;;;5109686;28;20016;-75
2023/07/26 03:08:02;;;;;;;3.90;1.55;;;;;;;;;;5109330;28;20092;-76
2023/07/26 03:10:32;;;;;;;3.75;1.88;;;;;;;;;;5092419;28;20031;-74
2023/07/26 03:13:01;;;;;;;6.78;2.25;;;;;;;;;;5089539;28;20029;-75
2023/07/26 03:15:27;;;;;;;3.05;1.88;;;;;;;;;;5091209;28;20039;-76
2023/07/26 03:17:56;;;;;;;5.05;2.20;;;;;;;;;;5087415;28;20080;-76
2023/07/26 03:20:27;;;;;;;7.85;1.77;;;;;;;;;;5092452;28;20139;-75
2023/07/26 03:23:03;;;;;;;;;;;;;;;;;;;;;
2023/07/26 03:25:38;;;;;;;5.88;2.15;;;;;;;;;;5093236;28;20049;-74
2023/07/26 03:28:26;;;;;;;10.10;2.50;;;;;;;;;;5091125;28;20021;-74
2023/07/26 03:30:55;;;;;;;5.30;2.10;;;;;;;;;;5085029;28;20025;-79
2023/07/26 03:33:22;;;;;;;4.65;2.50;;;;;;;;;;5086785;28;20045;-75
2023/07/26 03:36:05;;;;;;;5.80;2.27;;;;;;;;;;5096761;28;20051;-75
2023/07/26 03:38:31;;;;;;;4.75;2.35;;;;;;;;;;5092488;28;20603;-75
2023/07/26 03:40:59;;;;;;;3.60;2.05;;;;;;;;;;5092535;28;20072;-74
2023/07/26 03:43:25;;;;;;;7.75;3.05;;;;;;;;;;5091831;28;20072;-75
2023/07/26 03:45:59;;;;;;;5.10;2.40;;;;;;;;;;5083919;28;20032;-76
2023/07/26 03:48:30;;;;;;;6.82;2.20;;;;;;;;;;5090975;28;20024;-75
2023/07/26 03:51:09;;;;;;;4.07;2.17;;;;;;;;;;5086901;28;20028;-77
2023/07/26 03:53:35;;;;;;;3.45;2.08;;;;;;;;;;5092935;28;20032;-75
2023/07/26 03:56:01;;;;;;;6.67;2.67;;;;;;;;;;5091735;28;20080;-75
2023/07/26 03:58:27;;;;;;;7.75;2.75;;;;;;;;;;5091436;28;20031;-74
2023/07/26 04:01:05;;;;;;;5.03;2.45;;;;;;;;;;5108282;28;20025;-74
2023/07/26 04:03:31;;;;;;;3.28;2.13;;;;;;;;;;5092075;28;20068;-74
2023/07/26 04:06:06;;;;;;;8.38;2.53;;;;;;;;;;5085262;28;20121;-75
2023/07/26 04:08:34;;;;;;;9.80;2.30;;;;;;;;;;5092489;28;20013;-74
2023/07/26 04:11:02;;;;;;;5.13;2.80;;;;;;;;;;5084501;28;20016;-74
2023/07/26 04:13:28;;;;;;;5.20;2.20;;;;;;;;;;5090536;28;20283;-75
2023/07/26 04:16:02;;;;;;;5.78;2.13;;;;;;;;;;5091566;28;20037;-75
2023/07/26 04:18:28;;;;;;;4.53;2.45;;;;;;;;;;5091048;28;20054;-75
2023/07/26 04:20:54;;;;;;;7.22;2.30;;;;;;;;;;5091127;28;20044;-74
2023/07/26 04:26:19;;;;;;;;;;;;;;;;;;;;;
2023/07/26 04:28:53;;;;;;;3.45;2.28;;;;;;;;;;5091468;28;20035;-74
2023/07/26 04:31:19;;;;;;;4.77;2.20;;;;;;;;;;5083227;28;20024;-74
2023/07/26 04:33:52;;;;;;;3.33;2.08;;;;;;;;;;5086177;28;20021;-74
2023/07/26 04:36:20;;;;;;;7.70;3.20;;;;;;;;;;5089328;28;20139;-74
2023/07/26 04:38:49;;;;;;;5.38;1.90;;;;;;;;;;5082275;28;20051;-75
2023/07/26 04:41:15;;;;;;;2.97;1.80;;;;;;;;;;5090314;28;20017;-75
2023/07/26 04:43:41;;;;;;;3.05;1.80;;;;;;;;;;5090988;28;20036;-75
2023/07/26 04:46:12;;;;;;;5.95;1.80;;;;;;;;;;5089778;28;20108;-75
2023/07/26 04:48:40;;;;;;;5.93;1.30;;;;;;;;;;5091272;28;20861;-74
2023/07/26 04:51:06;;;;;;;3.93;1.43;;;;;;;;;;5087911;28;20013;-74
2023/07/26 04:53:35;;;;;;;2.07;1.10;;;;;;;;;;5089936;28;20025;-74
2023/07/26 04:56:03;;;;;;;2.45;1.02;;;;;;;;;;5089356;28;20039;-75
2023/07/26 04:58:29;;;;;;;3.17;0.90;;;;;;;;;;5088855;28;20174;-74
2023/07/26 05:00:55;;;;;;;5.97;1.40;;;;;;;;;;5081793;28;20016;-75
2023/07/26 05:03:21;;;;;;;3.10;0.90;;;;;;;;;;5084554;28;20012;-75
2023/07/26 05:05:51;;;;;;;1.13;0.67;;;;;;;;;;5083819;28;20400;-75
2023/07/26 05:08:22;;;;;;;1.38;0.73;;;;;;;;;;5102953;28;20029;-75
2023/07/26 05:10:50;;;;;;;3.72;1.05;;;;;;;;;;5084998;28;20024;-75
2023/07/26 05:13:24;;;;;;;1.70;0.85;;;;;;;;;;5107154;28;20097;-75
2023/07/26 05:15:52;;;;;;;1.92;0.60;;;;;;;;;;5089884;28;20066;-76
2023/07/26 05:18:24;;;;;;;3.60;0.95;;;;;;;;;;5090914;28;20042;-75
2023/07/26 05:20:50;;;;;;;1.90;0.80;;;;;;;;;;5090466;28;20077;-75
2023/07/26 05:23:17;;;;;;;2.30;0.70;;;;;;;;;;5084335;28;20140;-75
2023/07/26 05:25:48;;;;;;;0.90;0.75;;;;;;;;;;5090890;28;20032;-74
2023/07/26 05:28:14;;;;;;;4.72;0.90;;;;;;;;;;5087077;28;20016;-75
2023/07/26 05:30:40;;;;;;;6.28;1.08;;;;;;;;;;5088346;28;20034;-75
2023/07/26 05:33:07;;;;;;;3.38;1.00;;;;;;;;;;5087827;28;20025;-75
2023/07/26 05:35:33;;;;;;;2.40;0.85;;;;;;;;;;5090322;28;20013;-75
2023/07/26 05:37:59;;;;;;;2.13;0.88;;;;;;;;;;5082760;28;20037;-75
2023/07/26 05:40:30;;;;;;;2.80;0.60;;;;;;;;;;5089768;28;20092;-75
2023/07/26 05:42:58;;;;;;;1.10;0.65;;;;;;;;;;5090198;28;20029;-74
2023/07/26 05:45:26;;;;;;;2.10;1.00;;;;;;;;;;5088221;28;20084;-75
2023/07/26 05:48:00;;;;;;;1.38;0.85;;;;;;;;;;5086667;28;20028;-75
2023/07/26 05:50:26;;;;;;;3.67;1.02;;;;;;;;;;5089655;28;20047;-75
2023/07/26 05:53:02;;;;;;;3.00;1.05;;;;;;;;;;5088649;28;20100;-75
2023/07/26 05:55:33;;;;;;;2.20;1.05;;;;;;;;;;5087390;28;20024;-75
2023/07/26 05:57:59;;;;;;;4.55;1.70;;;;;;;;;;5089050;28;20041;-75
2023/07/26 06:00:27;;;;;;;5.80;1.70;;;;;;;;;;5091555;28;20027;-75
2023/07/26 06:02:53;;;;;;;3.65;1.67;;;;;;;;;;5087223;28;20096;-75
2023/07/26 06:05:20;;;;;;;3.22;1.85;;;;;;;;;;5088262;28;20043;-75
2023/07/26 06:07:50;;;;;;;5.57;2.33;;;;;;;;;;5087900;28;20033;-75
2023/07/26 06:10:19;;;;;;;5.00;2.83;;;;;;;;;;5088717;28;20016;-75
2023/07/26 06:12:50;;;;;;;4.45;2.05;;;;;;;;;;5100558;28;20025;-75
2023/07/26 06:15:18;;;;;;;6.95;2.08;;;;;;;;;;5105617;28;20016;-75
2023/07/26 06:17:47;;;;;;;9.13;3.03;;;;;;;;;;5087098;28;20032;-75
2023/07/26 06:20:13;;;;;;;9.18;4.82;;;;;;;;;;5089818;28;20048;-75
2023/07/26 06:22:39;;;;;;;8.48;2.80;;;;;;;;;;5089284;28;20051;-75
2023/07/26 06:25:05;;;;;;;7.22;4.05;;;;;;;;;;5088911;28;20017;-75
2023/07/26 06:27:34;;;;;;;5.05;2.40;;;;;;;;;;5088564;28;20033;-74
2023/07/26 06:30:00;;;;;;;6.25;2.70;;;;;;;;;;5105387;28;20056;-76
2023/07/26 06:32:26;;;;;;;4.75;3.17;;;;;;;;;;5088689;28;20046;-75
2023/07/26 06:35:02;;;;;;;;;;;;;;;;;;;;;
2023/07/26 06:37:28;;;;;;;5.32;3.47;;;;;;;;;;5088361;28;20048;-75
2023/07/26 06:39:54;;;;;;;5.78;3.03;;;;;;;;;;5084461;28;20028;-75
2023/07/26 06:42:20;;;;;;;6.40;3.35;;;;;;;;;;5099730;28;20033;-75
2023/07/26 06:44:46;;;;;;;6.00;3.22;;;;;;;;;;5086320;28;20050;-75
2023/07/26 06:47:12;;;;;;;8.52;3.42;;;;;;;;;;5084682;28;21169;-75
2023/07/26 06:49:38;;;;;;;6.10;3.15;;;;;;;;;;5082174;28;20096;-74
2023/07/26 06:52:05;;;;;;;7.20;3.15;;;;;;;;;;5084307;28;20020;-75
2023/07/26 06:54:38;;;;;;;6.38;2.47;;;;;;;;;;5088821;28;20099;-75
2023/07/26 06:57:07;;;;;;;7.65;3.38;;;;;;;;;;5106904;28;20032;-75
2023/07/26 06:59:33;;;;;;;7.57;2.88;;;;;;;;;;5087320;28;20058;-78
2023/07/26 07:01:59;;;;;;;12.65;3.03;;;;;;;;;;5089088;28;20063;-77
2023/07/26 07:04:26;;;;;;;8.35;3.25;;;;;;;;;;5086205;28;21697;-78
2023/07/26 07:06:52;;;;;;;12.57;3.15;;;;;;;;;;5084939;28;20032;-77
2023/07/26 07:09:18;;;;;;;4.10;2.75;;;;;;;;;;5087422;28;20025;-78
2023/07/26 07:11:44;;;;;;;8.25;3.30;;;;;;;;;;5086152;28;20195;-80
2023/07/26 07:14:10;;;;;;;6.97;3.25;;;;;;;;;;5089006;28;20032;-79
2023/07/26 07:16:36;;;;;;;11.60;3.58;;;;;;;;;;5081456;28;20116;-79
2023/07/26 07:19:02;;;;;;;8.10;2.92;;;;;;;;;;5083981;28;20028;-78
2023/07/26 07:21:28;;;;;;;6.85;3.25;;;;;;;;;;5090960;28;20024;-78
2023/07/26 07:23:55;;;;;;;5.75;2.90;;;;;;;;;;5081503;28;20033;-77
2023/07/26 07:26:21;;;;;;;9.00;3.55;;;;;;;;;;5090022;28;20139;-79
2023/07/26 07:28:47;;;;;;;6.65;3.17;;;;;;;;;;5075777;28;20076;-78
2023/07/26 07:31:13;;;;;;;8.88;3.90;;;;;;;;;;5087237;28;20025;-78
2023/07/26 07:33:39;;;;;;;9.57;3.70;;;;;;;;;;5088214;28;20082;-77
2023/07/26 07:36:06;;;;;;;11.07;3.33;;;;;;;;;;5090000;28;20047;-78
2023/07/26 07:38:32;;;;;;;6.53;3.00;;;;;;;;;;5085719;28;20029;-75
2023/07/26 07:40:58;;;;;;;10.80;3.22;;;;;;;;;;5090413;28;20059;-74
2023/07/26 07:43:25;;;;;;;10.85;3.70;;;;;;;;;;5090174;28;20044;-76
2023/07/26 07:45:51;;;;;;;6.03;3.40;;;;;;;;;;5089410;28;20032;-76
2023/07/26 07:48:17;;;;;;;8.52;2.83;;;;;;;;;;5091693;28;20052;-76
2023/07/26 07:50:43;;;;;;;7.20;3.42;;;;;;;;;;5092389;28;20017;-75
2023/07/26 07:53:09;;;;;;;6.25;3.55;;;;;;;;;;5090653;28;20027;-78
2023/07/26 07:55:39;;;;;;;7.97;3.53;;;;;;;;;;5090076;28;20028;-75
2023/07/26 07:58:06;;;;;;;8.15;3.35;;;;;;;;;;5086772;28;20029;-76
2023/07/26 08:00:32;;;;;;;10.25;3.83;;;;;;;;;;5088587;28;20016;-75
2023/07/26 08:02:58;;;;;;;11.85;4.03;;;;;;;;;;5087975;28;20028;-76
2023/07/26 08:05:25;;;;;;;8.15;3.67;;;;;;;;;;5076545;28;20063;-79
2023/07/26 08:07:51;;;;;;;11.27;5.45;;;;;;;;;;5090054;28;20044;-77
2023/07/26 08:10:18;;;;;;;14.68;4.80;;;;;;;;;;5082448;28;20032;-78
2023/07/26 08:12:44;;;;;;;10.80;5.68;;;;;;;;;;5088956;28;20020;-77
2023/07/26 08:15:10;;;;;;;13.27;5.43;;;;;;;;;;5100073;28;20035;-77
2023/07/26 08:17:36;;;;;;;7.88;4.25;;;;;;;;;;5089279;28;20094;-76
2023/07/26 08:20:04;;;;;;;11.15;4.47;;;;;;;;;;5090246;28;20317;-76
2023/07/26 08:22:30;;;;;;;9.75;5.03;;;;;;;;;;5083385;28;20095;-77
2023/07/26 08:24:56;;;;;;;11.15;5.53;;;;;;;;;;5080137;28;20058;-78
2023/07/26 08:27:22;;;;;;;12.98;5.30;;;;;;;;;;5090058;28;20045;-78
2023/07/26 08:29:48;;;;;;;10.75;5.13;;;;;;;;;;5081978;28;20029;-76
2023/07/26 08:32:15;;;;;;;10.48;5.15;;;;;;;;;;5086660;28;20028;-77
2023/07/26 08:34:41;;;;;;;15.27;5.13;;;;;;;;;;5088205;28;20059;-78
2023/07/26 08:37:08;;;;;;;9.63;4.88;;;;;;;;;;5084234;28;20032;-77
2023/07/26 08:39:35;;;;;;;9.93;4.80;;;;;;;;;;5091838;28;20024;-76
2023/07/26 08:42:01;;;;;;;9.50;4.43;;;;;;;;;;5089746;28;20028;-76
2023/07/26 08:44:27;;;;;;;8.65;4.57;;;;;;;;;;5092450;28;20021;-77
2023/07/26 08:46:53;;;;;;;8.73;3.85;;;;;;;;;;5083385;28;20051;-78
2023/07/26 08:49:19;;;;;;;10.15;3.88;;;;;;;;;;5088401;28;20036;-78
2023/07/26 08:51:46;;;;;;;11.00;4.40;;;;;;;;;;5079285;28;20021;-80
2023/07/26 08:54:13;;;;;;;10.77;4.07;;;;;;;;;;5075973;28;20031;-82
2023/07/26 08:56:39;;;;;;;7.35;2.75;;;;;;;;;;5063449;28;20033;-82
2023/07/26 08:59:05;;;;;;;4.32;2.88;;;;;;;;;;5060095;28;20036;-81
2023/07/26 09:01:31;;;;;;;8.85;3.30;;;;;;;;;;5064044;28;20025;-80
2023/07/26 09:03:57;;;;;;;4.72;2.58;;;;;;;;;;5069421;28;20063;-80
2023/07/26 09:06:23;;;;;;;8.93;3.38;;;;;;;;;;5070442;28;20123;-80
2023/07/26 09:08:49;;;;;;;8.32;3.47;;;;;;;;;;5067315;28;20090;-81
2023/07/26 09:11:27;;;;;;;8.93;3.72;;;;;;;;;;5068815;28;20020;-80
2023/07/26 09:13:53;;;;;;;7.35;3.25;;;;;;;;;;5066690;28;20135;-82
2023/07/26 09:16:20;;;;;;;5.95;3.10;;;;;;;;;;5064006;28;20037;-81
2023/07/26 09:18:59;;;;;;;7.55;3.45;;;;;;;;;;5067901;28;20115;-79
2023/07/26 09:21:30;;;;;;;9.23;3.33;;;;;;;;;;5068553;28;20040;-77
2023/07/26 09:23:57;;;;;;;10.88;3.47;;;;;;;;;;5067900;28;20043;-80
2023/07/26 09:26:39;;;;;;;6.30;3.88;;;;;;;;;;5068158;28;20032;-80
2023/07/26 09:29:05;;;;;;;;;;;;;;;;;;5068955;28;20468;-83
2023/07/26 09:31:32;;;;;;;10.10;3.55;;;;;;;;;;5067949;28;19924;-81
2023/07/26 09:34:02;;;;;;;8.15;4.03;;;;;;;;;;5067900;28;20029;-81
2023/07/26 09:36:40;;;;;;;9.32;3.30;;;;;;;;;;5067770;28;20107;-82
2023/07/26 09:39:06;;;;;;;5.78;3.30;;;;;;;;;;5066084;28;20460;-81
2023/07/26 09:41:35;;;;;;;9.23;3.60;;;;;;;;;;5070078;28;20063;-80
2023/07/26 09:44:01;;;;;;;8.30;3.60;;;;;;;;;;5068786;28;20037;-82
2023/07/26 09:46:27;;;;;;;11.05;2.95;;;;;;;;;;5060190;28;20033;-82
2023/07/26 09:49:00;;;;;;;7.30;3.03;;;;;;;;;;5067448;28;20127;-80
2023/07/26 09:51:27;;;;;;;6.88;2.97;;;;;;;;;;5084237;28;20036;-85
2023/07/26 09:53:55;;;;;;;8.15;2.83;;;;;;;;;;5058762;28;20048;-82
2023/07/26 09:56:21;;;;;;;8.15;3.38;;;;;;;;;;5067779;28;20120;-80
2023/07/26 09:58:50;;;;;;;12.77;4.30;;;;;;;;;;5064845;28;20040;-84
2023/07/26 10:01:21;;;;;;;7.15;4.18;;;;;;;;;;5076167;28;20052;-77
2023/07/26 10:03:51;;;;;;;9.38;5.28;;;;;;;;;;5082925;28;20112;-75
2023/07/26 10:06:19;;;;;;;11.55;5.90;;;;;;;;;;5089453;28;20040;-75
2023/07/26 10:08:46;;;;;;;10.00;5.60;;;;;;;;;;5090944;28;20008;-75
2023/07/26 10:11:14;;;;;;;11.45;6.22;;;;;;;;;;5085401;28;20024;-74
2023/07/26 10:13:42;;;;;;;10.55;6.55;;;;;;;;;;5090395;28;20017;-76
2023/07/26 10:16:11;;;;;;;10.00;6.43;;;;;;;;;;5089218;28;20033;-75
2023/07/26 10:18:39;;;;;;;8.95;5.85;;;;;;;;;;5089381;28;20478;-73
2023/07/26 10:21:05;;;;;;;9.73;4.72;;;;;;;;;;5089146;28;20008;-73
2023/07/26 10:23:34;;;;;;;17.27;4.88;;;;;;;;;;5081283;28;20035;-72
2023/07/26 10:26:04;;;;;;;37.63;6.75;;;;;;;;;;5089097;28;20032;-73
2023/07/26 10:28:33;;;;;;;66.68;8.15;;;;;;;;;;5081532;28;20040;-74
2023/07/26 10:30:59;;;;;;;20.50;6.07;;;;;;;;;;5087687;28;20063;-73
2023/07/26 10:33:26;;;;;;;15.73;7.30;;;;;;;;;;5093564;28;20104;-73
2023/07/26 10:35:52;;;;;;;13.70;8.48;;;;;;;;;;5090560;28;20095;-73
2023/07/26 10:38:19;;;;;;;24.25;9.35;;;;;;;;;;5094154;28;20038;-72
2023/07/26 10:40:45;;;;;;;14.80;7.43;;;;;;;;;;5093598;28;20045;-72
2023/07/26 10:43:20;;;;;;;10.38;7.20;;;;;;;;;;5091745;28;20052;-72
2023/07/26 10:45:49;;;;;;;12.25;6.82;;;;;;;;;;5093489;28;20060;-71
2023/07/26 10:48:48;;;;;;;15.35;5.40;;;;;;;;;;5088200;28;20025;-71
2023/07/26 10:51:24;;;;;;;17.25;5.53;;;;;;;;;;5078452;28;20040;-71
2023/07/26 10:53:53;;;;;;;9.18;5.00;;;;;;;;;;5092376;28;20028;-71
2023/07/26 10:56:20;;;;;;;9.68;4.80;;;;;;;;;;5094205;28;20027;-71
2023/07/26 10:58:50;;;;;;;8.48;5.13;;;;;;;;;;5093178;28;20012;-72
2023/07/26 11:01:40;;;;;;;43.90;8.88;;;;;;;;;;5094129;28;20084;-71
2023/07/26 11:04:24;;;;;;;15.32;6.93;;;;;;;;;;5090883;28;20040;-72
2023/07/26 11:06:50;;;;;;;12.85;6.28;;;;;;;;;;5096376;28;20027;-72
2023/07/26 11:09:29;;;;;;;12.32;6.97;;;;;;;;;;5094181;28;20016;-71
2023/07/26 11:12:10;;;;;;;18.45;8.13;;;;;;;;;;5093126;28;20032;-72
2023/07/26 11:14:37;;;;;;;21.63;9.98;;;;;;;;;;5109855;28;20028;-71
2023/07/26 11:17:10;;;;;;;22.75;11.20;;;;;;;;;;5087708;28;20028;-72
2023/07/26 11:19:50;;;;;;;24.13;11.48;;;;;;;;;;5092971;28;20050;-71
2023/07/26 11:22:16;;;;;;;28.15;13.68;;;;;;;;;;5094245;28;20247;-71
2023/07/26 11:24:42;;;;;;;26.17;13.65;;;;;;;;;;5093550;28;20066;-72
2023/07/26 11:27:08;;;;;;;25.33;14.25;;;;;;;;;;5093323;28;20036;-71
2023/07/26 11:29:36;;;;;;;38.28;16.17;;;;;;;;;;5087658;28;20100;-72
2023/07/26 11:32:03;;;;;;;36.88;17.08;;;;;;;;;;5094258;28;20017;-72
2023/07/26 11:34:29;;;;;;;39.55;16.52;;;;;;;;;;5093771;28;20021;-71
2023/07/26 11:37:07;;;;;;;27.25;14.60;;;;;;;;;;5093143;28;20036;-71
2023/07/26 11:39:34;;;;;;;21.38;13.63;;;;;;;;;;5093160;28;20058;-71
2023/07/26 11:42:00;;;;;;;26.85;12.48;;;;;;;;;;5092423;28;20036;-72
2023/07/26 11:44:26;;;;;;;22.42;12.05;;;;;;;;;;5090971;28;20043;-71
2023/07/26 11:46:54;;;;;;;46.40;16.77;;;;;;;;;;5090466;28;20036;-71
2023/07/26 11:49:21;;;;;;;30.38;15.35;;;;;;;;;;5093532;28;20185;-71
2023/07/26 11:51:50;;;;;;;34.15;16.27;;;;;;;;;;5090354;28;20084;-71
2023/07/26 11:54:17;;;;;;;32.75;18.13;;;;;;;;;;5088149;28;20021;-72
2023/07/26 11:56:43;;;;;;;31.55;18.02;;;;;;;;;;5088486;28;20013;-71
2023/07/26 11:59:10;;;;;;;31.05;17.80;;;;;;;;;;5093183;28;20020;-71
2023/07/26 12:01:39;;;;;;;28.48;16.65;;;;;;;;;;5092962;28;20028;-71
2023/07/26 12:04:11;;;;;;;23.70;15.18;;;;;;;;;;5088100;28;20124;-71
2023/07/26 12:06:40;;;;;;;28.98;15.52;;;;;;;;;;5092389;28;20082;-71
2023/07/26 12:09:09;;;;;;;28.48;15.82;;;;;;;;;;5092342;28;20036;-71
2023/07/26 12:11:36;;;;;;;31.48;16.35;;;;;;;;;;5092761;28;20017;-72
2023/07/26 12:14:02;;;;;;;22.65;15.43;;;;;;;;;;5092938;28;20039;-72
2023/07/26 12:16:28;;;;;;;19.20;14.20;;;;;;;;;;5092956;28;20020;-72
2023/07/26 12:18:58;;;;;;;18.38;12.18;;;;;;;;;;5084846;28;20029;-72
2023/07/26 12:21:24;;;;;;;16.10;10.35;;;;;;;;;;5083857;28;20070;-72
2023/07/26 12:23:51;;;;;;;15.52;9.95;;;;;;;;;;5092414;28;20090;-72
2023/07/26 12:26:17;;;;;;;15.55;10.07;;;;;;;;;;5090057;28;20078;-72
2023/07/26 12:28:49;;;;;;;15.82;10.20;;;;;;;;;;5092252;28;20093;-72
2023/07/26 12:31:21;;;;;;;12.55;8.23;;;;;;;;;;5091758;28;20020;-72
2023/07/26 12:34:01;;;;;;;12.00;8.80;;;;;;;;;;5092516;28;20042;-72
2023/07/26 12:36:29;;;;;;;15.35;8.43;;;;;;;;;;5091152;28;20032;-73
2023/07/26 12:38:59;;;;;;;12.40;7.38;;;;;;;;;;5092787;28;20026;-72
2023/07/26 12:41:25;;;;;;;9.90;6.85;;;;;;;;;;5108665;28;20035;-72
2023/07/26 12:43:52;;;;;;;11.75;6.63;;;;;;;;;;5091273;28;20107;-72
2023/07/26 12:46:18;;;;;;;9.35;5.85;;;;;;;;;;5092195;28;20021;-73
2023/07/26 12:48:44;;;;;;;11.38;7.78;;;;;;;;;;5107421;28;20054;-75
2023/07/26 12:51:10;;;;;;;12.70;8.77;;;;;;;;;;5090728;28;20020;-72
2023/07/26 12:53:36;;;;;;;13.73;7.20;;;;;;;;;;5090644;28;20024;-73
2023/07/26 12:56:02;;;;;;;12.15;7.03;;;;;;;;;;5088647;28;20024;-76
2023/07/26 12:58:28;;;;;;;10.20;6.15;;;;;;;;;;5082859;28;20024;-79
2023/07/26 13:00:54;;;;;;;9.30;5.88;;;;;;;;;;5071035;28;20039;-83
2023/07/26 13:03:21;;;;;;;8.65;6.22;;;;;;;;;;5064412;28;20032;-79
2023/07/26 13:05:50;;;;;;;7.80;4.47;;;;;;;;;;5064113;28;20028;-81
2023/07/26 13:08:16;;;;;;;9.80;5.40;;;;;;;;;;5066427;28;20056;-79
2023/07/26 13:10:42;;;;;;;8.05;4.90;;;;;;;;;;5058110;28;20058;-84
2023/07/26 13:13:08;;;;;;;15.70;5.60;;;;;;;;;;5067888;28;20107;-85
2023/07/26 13:15:34;;;;;;;9.60;5.10;;;;;;;;;;5068925;28;20498;-80
2023/07/26 13:18:00;;;;;;;8.88;4.95;;;;;;;;;;5066713;28;20051;-81
2023/07/26 13:20:27;;;;;;;9.95;5.28;;;;;;;;;;5065743;28;20059;-76
2023/07/26 13:22:53;;;;;;;10.75;5.28;;;;;;;;;;5094855;28;20024;-76
2023/07/26 13:25:19;;;;;;;11.50;6.05;;;;;;;;;;5073911;28;20036;-78
2023/07/26 13:27:47;;;;;;;6.40;5.32;;;;;;;;;;5078282;28;20028;-76
2023/07/26 13:30:16;;;;;;;12.00;7.07;;;;;;;;;;5071318;28;20129;-84
2023/07/26 13:32:42;;;;;;;9.57;6.57;;;;;;;;;;5066354;28;20025;-78
2023/07/26 13:35:09;;;;;;;8.35;6.43;;;;;;;;;;5061608;28;20032;-80
2023/07/26 13:37:36;;;;;;;12.98;6.97;;;;;;;;;;5064442;28;20047;-83
2023/07/26 13:40:02;;;;;;;9.60;6.45;;;;;;;;;;5063744;28;20040;-82
2023/07/26 13:42:28;;;;;;;9.13;5.20;;;;;;;;;;5065294;28;20075;-85
2023/07/26 13:44:54;;;;;;;9.52;5.45;;;;;;;;;;5063859;28;20170;-83
2023/07/26 13:47:23;;;;;;;8.25;4.15;;;;;;;;;;5064269;28;20063;-82
2023/07/26 13:49:51;;;;;;;7.22;3.95;;;;;;;;;;5063514;28;20529;-85
2023/07/26 13:52:20;;;;;;;6.70;3.53;;;;;;;;;;5064693;28;20040;-87
2023/07/26 13:54:46;;;;;;;7.90;4.22;;;;;;;;;;5063290;28;20056;-84
2023/07/26 13:57:12;;;;;;;5.25;3.08;;;;;;;;;;5067905;28;20039;-80
2023/07/26 13:59:38;;;;;;;4.63;3.20;;;;;;;;;;5061698;28;20029;-88
2023/07/26 14:02:04;;;;;;;5.80;3.08;;;;;;;;;;5063915;28;20032;-82
2023/07/26 14:04:33;;;;;;;5.20;2.63;;;;;;;;;;5054936;28;20029;-82
2023/07/26 14:06:59;;;;;;;4.55;3.10;;;;;;;;;;5065634;28;20056;-84
2023/07/26 14:09:25;;;;;;;5.88;3.08;;;;;;;;;;5066955;28;20031;-80
2023/07/26 14:11:51;;;;;;;6.90;3.50;;;;;;;;;;5068222;28;20032;-84
2023/07/26 14:14:19;;;;;;;4.68;3.05;;;;;;;;;;5067928;28;20029;-86
2023/07/26 14:16:48;;;;;;;6.00;3.00;;;;;;;;;;5063580;28;20108;-85
2023/07/26 14:19:14;;;;;;;6.88;3.25;;;;;;;;;;5060856;28;20207;-79
2023/07/26 14:21:40;;;;;;;6.38;3.10;;;;;;;;;;5067348;28;20516;-84
2023/07/26 14:24:06;;;;;;;6.35;3.25;;;;;;;;;;5066760;28;20032;-88
2023/07/26 14:26:32;;;;;;;5.55;3.17;;;;;;;;;;5067444;28;20954;-84
2023/07/26 14:28:58;;;;;;;5.93;3.05;;;;;;;;;;5067443;28;20058;-83
2023/07/26 14:31:24;;;;;;;6.05;3.30;;;;;;;;;;5067330;28;20591;-83
2023/07/26 14:33:50;;;;;;;6.43;2.88;;;;;;;;;;5067852;28;20516;-86
2023/07/26 14:36:17;;;;;;;4.90;2.42;;;;;;;;;;5068394;28;20037;-84
2023/07/26 14:38:47;;;;;;;9.13;2.95;;;;;;;;;;5066196;28;20032;-87
2023/07/26 14:41:13;;;;;;;5.45;2.67;;;;;;;;;;5078171;28;20112;-84
2023/07/26 14:43:39;;;;;;;4.25;2.70;;;;;;;;;;5066288;28;20678;-81
2023/07/26 14:46:10;;;;;;;2.47;2.13;;;;;;;;;;5067329;28;20098;-84
2023/07/26 14:48:36;;;;;;;6.68;2.60;;;;;;;;;;5067624;28;20033;-85
2023/07/26 14:51:02;;;;;;;5.82;2.47;;;;;;;;;;5067099;28;21710;-89
2023/07/26 14:53:28;;;;;;;9.40;2.95;;;;;;;;;;5067828;28;20028;-87
2023/07/26 14:55:54;;;;;;;4.20;2.20;;;;;;;;;;5067747;28;20035;-84
2023/07/26 14:58:20;;;;;;;6.25;2.92;;;;;;;;;;5066747;28;20622;-88